Time;durP1;ratioP1;P1;durP2;ratioP2;P2;SDS_P1;SDS_P2;PMS_P1;PMS_P2;Temp;Humidity;BMP_temperature;BMP_pressure;BME280_temperature;BME280_humidity;BME280_pressure;Samples;Min_cycle;Max_cycle;Signal;HPM_P1;HPM_P2
2021/09/17 00:02:01;;;;;;;5.78;2.20;;;16.10;99.90;;;;;;4977799;28;20474;-63
2021/09/17 00:04:27;;;;;;;5.95;2.50;;;16.20;99.90;;;;;;4977697;28;20053;-63
2021/09/17 00:06:53;;;;;;;5.25;2.85;;;16.20;99.90;;;;;;4978752;28;20462;-63
2021/09/17 00:09:20;;;;;;;3.38;1.90;;;16.20;99.90;;;;;;4980198;28;20034;-63
2021/09/17 00:11:45;;;;;;;7.85;2.28;;;16.20;99.90;;;;;;4980169;28;20042;-64
2021/09/17 00:14:11;;;;;;;4.20;2.30;;;16.20;99.90;;;;;;4980396;28;20045;-63
2021/09/17 00:16:36;;;;;;;4.43;1.70;;;16.20;99.90;;;;;;4980194;28;20046;-63
2021/09/17 00:19:01;;;;;;;6.15;2.05;;;16.20;99.90;;;;;;4978553;28;20057;-63
2021/09/17 00:21:27;;;;;;;4.72;1.80;;;16.20;99.90;;;;;;4978026;28;20030;-63
2021/09/17 00:23:52;;;;;;;5.28;2.05;;;16.10;99.90;;;;;;4980357;28;20042;-64
2021/09/17 00:26:18;;;;;;;4.05;2.15;;;16.10;99.90;;;;;;4980055;28;20038;-63
2021/09/17 00:28:43;;;;;;;5.32;2.00;;;16.10;99.90;;;;;;4979299;28;20109;-63
2021/09/17 00:31:09;;;;;;;5.35;2.03;;;16.10;99.90;;;;;;4979405;28;20479;-63
2021/09/17 00:33:34;;;;;;;7.13;1.65;;;16.00;99.90;;;;;;4979635;28;20042;-63
2021/09/17 00:36:02;;;;;;;6.53;1.90;;;16.10;99.90;;;;;;4978788;28;20037;-63
2021/09/17 00:38:27;;;;;;;10.95;2.17;;;16.10;99.90;;;;;;4974328;28;20026;-63
2021/09/17 00:40:53;;;;;;;3.60;1.80;;;16.00;99.90;;;;;;4978722;28;20026;-63
2021/09/17 00:43:18;;;;;;;3.85;1.55;;;16.10;99.90;;;;;;4978548;28;20181;-63
2021/09/17 00:45:44;;;;;;;5.68;1.70;;;16.10;99.90;;;;;;4979319;28;20030;-63
2021/09/17 00:48:10;;;;;;;3.42;1.70;;;16.30;99.90;;;;;;4978324;28;20120;-63
2021/09/17 00:50:35;;;;;;;2.50;1.52;;;16.10;99.90;;;;;;4976941;28;20048;-63
2021/09/17 00:53:01;;;;;;;2.20;1.42;;;16.10;99.90;;;;;;4979276;28;20789;-63
2021/09/17 00:55:26;;;;;;;5.28;1.90;;;16.10;99.90;;;;;;4979363;28;20069;-64
2021/09/17 00:57:52;;;;;;;5.40;1.80;;;16.20;99.90;;;;;;4981318;28;20038;-63
2021/09/17 01:00:17;;;;;;;2.65;1.50;;;16.20;99.90;;;;;;4978935;28;20098;-63
2021/09/17 01:02:43;;;;;;;5.07;1.45;;;16.20;99.90;;;;;;4977677;28;20041;-64
2021/09/17 01:05:08;;;;;;;7.65;1.98;;;16.30;99.90;;;;;;4979473;28;20042;-64
2021/09/17 01:07:34;;;;;;;6.55;1.60;;;16.20;99.90;;;;;;4976699;28;20049;-64
2021/09/17 01:09:59;;;;;;;5.13;1.80;;;16.20;99.90;;;;;;4977702;28;20092;-63
2021/09/17 01:12:25;;;;;;;14.35;1.65;;;16.10;99.90;;;;;;4979583;28;20514;-63
2021/09/17 01:14:50;;;;;;;2.05;1.40;;;16.80;99.90;;;;;;4978842;28;20034;-63
2021/09/17 01:17:17;;;;;;;3.80;1.40;;;16.20;99.90;;;;;;4979450;28;20062;-63
2021/09/17 01:19:42;;;;;;;5.72;1.77;;;16.20;99.90;;;;;;4979654;28;20057;-63
2021/09/17 01:22:08;;;;;;;7.18;1.98;;;16.20;99.90;;;;;;4979042;28;20486;-63
2021/09/17 01:24:33;;;;;;;5.90;1.70;;;16.20;99.90;;;;;;4983776;28;20121;-63
2021/09/17 01:26:59;;;;;;;6.10;2.00;;;16.60;99.90;;;;;;4982885;28;20092;-64
2021/09/17 01:29:24;;;;;;;3.97;1.50;;;16.20;99.90;;;;;;4983167;28;20126;-63
2021/09/17 01:31:50;;;;;;;8.70;1.92;;;16.20;99.90;;;;;;4983073;28;20038;-64
2021/09/17 01:34:16;;;;;;;3.00;1.50;;;16.30;99.90;;;;;;4982369;28;20045;-64
2021/09/17 01:36:41;;;;;;;6.70;1.83;;;16.20;99.90;;;;;;4981956;28;20034;-63
2021/09/17 01:39:07;;;;;;;4.18;1.58;;;16.20;99.90;;;;;;4980782;28;20032;-63
2021/09/17 01:41:32;;;;;;;5.30;1.60;;;16.20;99.90;;;;;;4981847;28;20030;-64
2021/09/17 01:43:57;;;;;;;5.80;1.75;;;16.20;99.90;;;;;;4981723;28;20477;-63
2021/09/17 01:46:23;;;;;;;4.57;1.52;;;16.20;99.90;;;;;;4982186;28;20042;-64
2021/09/17 01:48:48;;;;;;;4.45;1.70;;;16.20;99.90;;;;;;4981840;28;20034;-64
2021/09/17 01:51:14;;;;;;;6.95;1.70;;;16.20;99.90;;;;;;4981548;28;20081;-64
2021/09/17 01:53:39;;;;;;;7.13;1.70;;;16.20;99.90;;;;;;4981782;28;20103;-63
2021/09/17 01:56:05;;;;;;;7.22;1.60;;;16.20;99.90;;;;;;4982418;28;20041;-63
2021/09/17 01:58:30;;;;;;;3.13;1.65;;;16.20;99.90;;;;;;4980993;28;20610;-63
2021/09/17 02:00:56;;;;;;;7.20;1.45;;;16.20;99.90;;;;;;4981943;28;20057;-64
2021/09/17 02:03:21;;;;;;;8.60;1.90;;;16.20;99.90;;;;;;4982676;28;20030;-64
2021/09/17 02:05:47;;;;;;;5.70;1.70;;;16.20;99.90;;;;;;4981808;28;20034;-64
2021/09/17 02:08:12;;;;;;;6.03;1.70;;;16.10;99.90;;;;;;4982311;28;20022;-63
2021/09/17 02:10:38;;;;;;;4.80;1.80;;;16.10;99.90;;;;;;4982593;28;20443;-64
2021/09/17 02:13:04;;;;;;;5.28;1.80;;;16.10;99.90;;;;;;4978325;28;20069;-63
2021/09/17 02:15:29;;;;;;;6.03;2.63;;;16.10;99.90;;;;;;4982308;28;20104;-63
2021/09/17 02:17:54;;;;;;;4.10;2.05;;;16.10;99.90;;;;;;4980165;28;20038;-63
2021/09/17 02:20:20;;;;;;;4.07;1.90;;;15.90;99.90;;;;;;4981431;28;20550;-64
2021/09/17 02:22:45;;;;;;;3.05;2.03;;;15.80;99.90;;;;;;4982255;28;20384;-66
2021/09/17 02:25:11;;;;;;;5.28;1.90;;;15.80;99.90;;;;;;4982254;28;20034;-66
2021/09/17 02:27:36;;;;;;;7.07;1.98;;;15.70;99.90;;;;;;4980383;28;20712;-66
2021/09/17 02:30:02;;;;;;;5.65;1.80;;;15.60;99.90;;;;;;4980573;28;20081;-66
2021/09/17 02:32:27;;;;;;;5.40;1.80;;;15.50;99.90;;;;;;4982181;28;20034;-66
2021/09/17 02:34:53;;;;;;;5.93;2.08;;;15.50;99.90;;;;;;4980436;28;20061;-66
2021/09/17 02:37:18;;;;;;;4.90;1.98;;;15.40;99.90;;;;;;4981731;28;20030;-66
2021/09/17 02:39:44;;;;;;;9.05;2.13;;;15.40;99.90;;;;;;4981751;28;20064;-66
2021/09/17 02:42:09;;;;;;;6.97;2.25;;;15.40;99.90;;;;;;4981369;28;20784;-66
2021/09/17 02:44:35;;;;;;;9.15;2.58;;;15.40;99.90;;;;;;4979465;28;20391;-66
2021/09/17 02:47:01;;;;;;;4.03;1.80;;;15.40;99.90;;;;;;4981283;28;20085;-67
2021/09/17 02:49:26;;;;;;;2.85;1.92;;;15.40;99.90;;;;;;4980615;28;20065;-66
2021/09/17 02:51:52;;;;;;;5.43;2.13;;;15.40;99.90;;;;;;4981313;28;20374;-66
2021/09/17 02:54:17;;;;;;;5.35;2.53;;;15.30;99.90;;;;;;4988460;28;20069;-66
2021/09/17 02:56:43;;;;;;;11.25;1.90;;;15.40;99.90;;;;;;4982960;28;20027;-66
2021/09/17 02:59:10;;;;;;;7.78;2.42;;;15.40;99.90;;;;;;4979832;28;20865;-66
2021/09/17 03:01:35;;;;;;;5.90;2.00;;;15.30;99.90;;;;;;4979847;28;20034;-66
2021/09/17 03:04:01;;;;;;;9.35;1.83;;;15.40;99.90;;;;;;4980822;28;20565;-66
2021/09/17 03:06:26;;;;;;;6.38;1.20;;;15.40;99.90;;;;;;4981364;28;20745;-66
2021/09/17 03:08:52;;;;;;;2.17;1.20;;;15.30;99.90;;;;;;4980002;28;20034;-66
2021/09/17 03:11:17;;;;;;;5.55;1.35;;;15.10;99.90;;;;;;4980435;28;20031;-66
2021/09/17 03:13:43;;;;;;;3.78;1.27;;;15.00;99.90;;;;;;4979453;28;20034;-66
2021/09/17 03:16:08;;;;;;;5.13;1.42;;;14.80;99.90;;;;;;4979055;28;20088;-66
2021/09/17 03:18:34;;;;;;;3.80;1.10;;;14.60;99.90;;;;;;4980133;28;20030;-66
2021/09/17 03:20:59;;;;;;;2.63;1.13;;;14.90;99.90;;;;;;4980118;28;20042;-66
2021/09/17 03:23:25;;;;;;;4.55;1.10;;;14.70;99.90;;;;;;4979484;28;20194;-66
2021/09/17 03:25:50;;;;;;;3.67;1.25;;;14.50;99.90;;;;;;4979815;28;20525;-66
2021/09/17 03:28:16;;;;;;;6.38;1.73;;;14.50;99.90;;;;;;4979636;28;20046;-66
2021/09/17 03:30:41;;;;;;;4.30;1.55;;;14.50;99.90;;;;;;4981279;28;20511;-66
2021/09/17 03:33:09;;;;;;;5.30;1.50;;;14.50;99.90;;;;;;4980246;28;20049;-65
2021/09/17 03:35:35;;;;;;;3.55;1.23;;;14.50;99.90;;;;;;4978850;28;20038;-66
2021/09/17 03:38:00;;;;;;;5.70;1.55;;;14.50;99.90;;;;;;4979165;28;20041;-66
2021/09/17 03:40:26;;;;;;;5.35;1.27;;;14.50;99.90;;;;;;4981020;28;20038;-66
2021/09/17 03:42:51;;;;;;;6.15;1.63;;;14.50;99.90;;;;;;4980884;28;20041;-66
2021/09/17 03:45:17;;;;;;;5.18;1.60;;;14.60;99.90;;;;;;4980559;28;20030;-66
2021/09/17 03:47:42;;;;;;;5.90;1.50;;;14.60;99.90;;;;;;4979027;28;20039;-66
2021/09/17 03:50:08;;;;;;;3.83;1.80;;;14.60;99.90;;;;;;4977787;28;20042;-66
2021/09/17 03:52:33;;;;;;;7.53;1.65;;;14.70;99.90;;;;;;4979571;28;20875;-66
2021/09/17 03:54:59;;;;;;;10.45;1.98;;;14.70;99.90;;;;;;4978902;28;20046;-66
2021/09/17 03:57:24;;;;;;;6.72;1.58;;;14.70;99.90;;;;;;4980335;28;20054;-66
2021/09/17 03:59:50;;;;;;;5.65;1.85;;;14.70;99.90;;;;;;4979995;28;20414;-66
2021/09/17 04:02:16;;;;;;;5.63;1.80;;;14.70;99.90;;;;;;4978829;28;20046;-66
2021/09/17 04:04:41;;;;;;;5.25;2.17;;;14.70;99.90;;;;;;4980283;28;20038;-66
2021/09/17 04:07:07;;;;;;;6.18;1.90;;;14.70;99.90;;;;;;4979657;28;20414;-66
2021/09/17 04:09:32;;;;;;;6.90;2.03;;;14.80;99.90;;;;;;4979919;28;20042;-65
2021/09/17 04:11:58;;;;;;;5.10;1.90;;;14.80;99.90;;;;;;4979971;28;20077;-66
2021/09/17 04:14:25;;;;;;;8.48;1.92;;;14.90;99.90;;;;;;4979466;28;20125;-66
2021/09/17 04:16:50;;;;;;;6.22;1.90;;;14.90;99.90;;;;;;4979912;28;20938;-66
2021/09/17 04:19:16;;;;;;;3.95;2.00;;;;;;;;;;4977579;28;20046;-66
2021/09/17 04:21:41;;;;;;;7.18;2.38;;;14.60;99.90;;;;;;4980116;28;20038;-66
2021/09/17 04:24:07;;;;;;;5.47;2.55;;;15.20;99.90;;;;;;4980759;28;20064;-66
2021/09/17 04:26:33;;;;;;;4.38;2.28;;;;;;;;;;4981001;28;20089;-66
2021/09/17 04:28:59;;;;;;;8.23;2.60;;;14.80;99.90;;;;;;4978698;28;20034;-66
2021/09/17 04:31:24;;;;;;;7.60;2.45;;;14.90;99.90;;;;;;4981214;28;20034;-65
2021/09/17 04:33:50;;;;;;;4.50;2.60;;;14.90;99.90;;;;;;4979141;28;20053;-66
2021/09/17 04:36:15;;;;;;;8.68;2.58;;;14.70;99.90;;;;;;4979872;28;20118;-67
2021/09/17 04:38:40;;;;;;;8.57;2.75;;;14.70;99.90;;;;;;4979730;28;20769;-66
2021/09/17 04:41:06;;;;;;;4.60;2.20;;;14.60;99.90;;;;;;4978505;28;20494;-66
2021/09/17 04:43:31;;;;;;;3.00;1.67;;;14.60;99.90;;;;;;4980390;28;20559;-66
2021/09/17 04:45:57;;;;;;;5.00;2.13;;;14.40;99.90;;;;;;4979319;28;20030;-66
2021/09/17 04:48:22;;;;;;;2.28;2.03;;;14.30;99.90;;;;;;4968816;28;20034;-67
2021/09/17 04:50:48;;;;;;;7.13;2.80;;;14.40;99.90;;;;;;4978722;28;20062;-67
2021/09/17 04:53:13;;;;;;;4.90;2.42;;;14.30;99.90;;;;;;4977502;28;20514;-67
2021/09/17 04:55:39;;;;;;;8.02;2.72;;;14.30;99.90;;;;;;4980681;28;20073;-67
2021/09/17 04:58:04;;;;;;;14.10;2.60;;;14.30;99.90;;;;;;4977728;28;20475;-67
2021/09/17 05:00:30;;;;;;;5.75;2.50;;;14.40;99.90;;;;;;4978682;28;20042;-67
2021/09/17 05:02:55;;;;;;;10.55;2.95;;;14.40;99.90;;;;;;4978502;28;20125;-67
2021/09/17 05:05:21;;;;;;;5.57;2.20;;;14.40;99.90;;;;;;4976930;28;20038;-66
2021/09/17 05:07:46;;;;;;;6.35;2.50;;;14.30;99.90;;;;;;4978387;28;20508;-67
2021/09/17 05:10:12;;;;;;;4.88;2.33;;;14.30;99.90;;;;;;4977908;28;20045;-66
2021/09/17 05:12:37;;;;;;;4.25;2.10;;;14.30;99.90;;;;;;4979195;28;20703;-66
2021/09/17 05:15:03;;;;;;;6.07;2.22;;;14.30;99.90;;;;;;4979221;28;20379;-66
2021/09/17 05:17:28;;;;;;;8.40;2.80;;;14.30;99.90;;;;;;4978356;28;20038;-66
2021/09/17 05:19:54;;;;;;;4.07;2.10;;;14.30;99.90;;;;;;4979169;28;20027;-66
2021/09/17 05:22:19;;;;;;;6.43;1.80;;;14.20;99.90;;;;;;4980184;28;20042;-66
2021/09/17 05:24:45;;;;;;;7.70;1.90;;;14.20;99.90;;;;;;4978672;28;20514;-66
2021/09/17 05:27:14;;;;;;;3.03;1.73;;;14.20;99.90;;;;;;4979490;28;20073;-66
2021/09/17 05:29:40;;;;;;;6.40;1.80;;;14.20;99.90;;;;;;4978696;28;20045;-66
2021/09/17 05:32:05;;;;;;;5.63;2.10;;;14.20;99.90;;;;;;4979184;28;20034;-66
2021/09/17 05:34:30;;;;;;;9.70;2.50;;;14.30;99.90;;;;;;4979254;28;20049;-66
2021/09/17 05:36:56;;;;;;;5.53;2.17;;;14.30;99.90;;;;;;4979068;28;20031;-66
2021/09/17 05:39:22;;;;;;;3.58;1.80;;;13.70;99.90;;;;;;4978992;28;20125;-66
2021/09/17 05:41:47;;;;;;;3.08;1.80;;;13.80;99.90;;;;;;4977499;28;20026;-67
2021/09/17 05:44:12;;;;;;;5.30;2.15;;;14.30;99.90;;;;;;4979268;28;20096;-66
2021/09/17 05:46:38;;;;;;;6.65;2.03;;;14.20;99.90;;;;;;4979326;28;20034;-66
2021/09/17 05:49:04;;;;;;;6.45;1.90;;;;;;;;;;4978504;28;20034;-65
2021/09/17 05:51:30;;;;;;;7.82;2.20;;;;;;;;;;4979326;28;20506;-65
2021/09/17 05:53:55;;;;;;;5.00;2.30;;;14.40;99.90;;;;;;4978499;28;20030;-66
2021/09/17 05:56:21;;;;;;;9.05;3.10;;;14.70;99.90;;;;;;4978324;28;20057;-66
2021/09/17 05:58:46;;;;;;;4.47;1.85;;;13.60;99.90;;;;;;4977331;28;20034;-65
2021/09/17 06:01:12;;;;;;;6.13;2.10;;;14.10;99.90;;;;;;4978714;28;20031;-64
2021/09/17 06:03:39;;;;;;;5.45;2.42;;;14.50;99.90;;;;;;4979008;28;20030;-64
2021/09/17 06:06:05;;;;;;;8.18;2.00;;;14.20;99.90;;;;;;4979370;28;20689;-64
2021/09/17 06:08:30;;;;;;;6.00;2.00;;;14.70;99.90;;;;;;4978209;28;20035;-65
2021/09/17 06:10:55;;;;;;;3.70;1.95;;;14.30;99.90;;;;;;4982086;28;20082;-64
2021/09/17 06:13:21;;;;;;;2.13;1.30;;;14.30;99.90;;;;;;4981945;28;20065;-64
2021/09/17 06:15:46;;;;;;;3.75;1.20;;;14.40;99.90;;;;;;4982386;28;20030;-65
2021/09/17 06:18:12;;;;;;;5.32;1.30;;;14.40;99.90;;;;;;4981699;28;20034;-65
2021/09/17 06:20:37;;;;;;;5.85;1.50;;;14.50;99.90;;;;;;4981471;28;20030;-65
2021/09/17 06:23:03;;;;;;;1.95;1.02;;;14.40;99.90;;;;;;4982841;28;20049;-64
2021/09/17 06:25:28;;;;;;;5.68;1.10;;;14.50;99.90;;;;;;4982352;28;20675;-64
2021/09/17 06:27:54;;;;;;;8.60;1.63;;;14.50;99.90;;;;;;4982012;28;20034;-64
2021/09/17 06:30:20;;;;;;;3.00;1.30;;;14.50;99.90;;;;;;4981821;28;20034;-64
2021/09/17 06:32:46;;;;;;;7.13;1.35;;;14.50;99.90;;;;;;4980130;28;20141;-64
2021/09/17 06:35:11;;;;;;;3.90;1.30;;;14.50;99.90;;;;;;4981783;28;20048;-65
2021/09/17 06:37:37;;;;;;;8.93;1.05;;;14.50;99.90;;;;;;4981743;28;20129;-65
2021/09/17 06:40:02;;;;;;;2.63;0.80;;;15.20;99.90;;;;;;4979337;28;20030;-65
2021/09/17 06:42:28;;;;;;;2.90;0.80;;;14.80;99.90;;;;;;4981521;28;20105;-65
2021/09/17 06:44:53;;;;;;;5.28;1.02;;;14.70;99.90;;;;;;4981239;28;20117;-65
2021/09/17 06:47:19;;;;;;;1.65;0.88;;;14.80;99.90;;;;;;4980231;28;20042;-65
2021/09/17 06:49:44;;;;;;;7.60;1.10;;;14.90;99.90;;;;;;4981464;28;20052;-64
2021/09/17 06:52:10;;;;;;;8.70;2.75;;;15.10;99.90;;;;;;4983881;28;20754;-65
2021/09/17 06:54:35;;;;;;;5.45;1.10;;;15.00;99.90;;;;;;4962287;28;20042;-64
2021/09/17 06:57:01;;;;;;;3.05;0.88;;;15.10;99.90;;;;;;4980726;28;20038;-65
2021/09/17 06:59:26;;;;;;;3.83;0.90;;;15.10;99.90;;;;;;4979729;28;20030;-64
2021/09/17 07:01:52;;;;;;;7.63;1.00;;;15.20;99.90;;;;;;4980805;28;20034;-65
2021/09/17 07:04:17;;;;;;;2.95;1.10;;;15.20;99.90;;;;;;4981355;28;20125;-65
2021/09/17 07:06:43;;;;;;;3.17;1.13;;;15.20;99.90;;;;;;4981553;28;20092;-65
2021/09/17 07:09:09;;;;;;;3.70;0.90;;;15.30;99.90;;;;;;4979778;28;20694;-65
2021/09/17 07:11:34;;;;;;;4.43;1.27;;;15.40;99.90;;;;;;4981212;28;20041;-65
2021/09/17 07:14:00;;;;;;;5.47;2.45;;;15.40;99.90;;;;;;4981817;28;20077;-65
2021/09/17 07:16:26;;;;;;;1.60;0.90;;;15.50;99.90;;;;;;4980054;28;20053;-65
2021/09/17 07:18:51;;;;;;;3.50;0.88;;;15.60;99.90;;;;;;4980849;28;20038;-66
2021/09/17 07:21:17;;;;;;;1.95;0.63;;;15.60;99.90;;;;;;4980662;28;20116;-66
2021/09/17 07:23:42;;;;;;;3.22;0.70;;;15.60;99.90;;;;;;4979261;28;20402;-66
2021/09/17 07:26:08;;;;;;;2.70;0.68;;;15.60;99.90;;;;;;4981117;28;20121;-66
2021/09/17 07:28:33;;;;;;;3.78;0.80;;;15.60;99.90;;;;;;4980883;28;20124;-66
2021/09/17 07:30:59;;;;;;;2.00;0.70;;;15.70;99.90;;;;;;4978490;28;20626;-66
2021/09/17 07:33:24;;;;;;;4.88;1.00;;;15.80;99.90;;;;;;4980910;28;20026;-66
2021/09/17 07:35:50;;;;;;;4.35;0.82;;;15.80;99.90;;;;;;4981316;28;20038;-66
2021/09/17 07:38:15;;;;;;;1.50;0.70;;;15.90;99.90;;;;;;4978373;28;20042;-66
2021/09/17 07:40:41;;;;;;;3.55;1.13;;;16.00;99.90;;;;;;4980786;28;20501;-66
2021/09/17 07:43:06;;;;;;;2.95;1.00;;;16.10;99.90;;;;;;4980774;28;20026;-66
2021/09/17 07:45:32;;;;;;;6.10;1.02;;;16.00;99.90;;;;;;4979117;28;20708;-66
2021/09/17 07:48:00;;;;;;;5.03;0.98;;;16.10;99.90;;;;;;4980659;28;20038;-66
2021/09/17 07:50:25;;;;;;;8.80;1.27;;;16.30;99.90;;;;;;4980847;28;20194;-66
2021/09/17 07:52:51;;;;;;;3.83;0.80;;;16.30;99.90;;;;;;4980635;28;20038;-66
2021/09/17 07:55:16;;;;;;;3.15;0.80;;;16.10;99.90;;;;;;4981060;28;20042;-66
2021/09/17 07:57:42;;;;;;;12.50;1.17;;;16.10;99.90;;;;;;4980169;28;20490;-65
2021/09/17 08:00:07;;;;;;;1.95;1.00;;;16.10;99.90;;;;;;4980583;28;20916;-65
2021/09/17 08:02:37;;;;;;;2.45;0.82;;;15.90;99.90;;;;;;4980733;28;20125;-65
2021/09/17 08:05:02;;;;;;;1.73;0.70;;;15.90;99.90;;;;;;4980560;28;20124;-65
2021/09/17 08:07:28;;;;;;;5.20;1.02;;;15.80;99.90;;;;;;4980024;28;20038;-65
2021/09/17 08:09:53;;;;;;;3.63;1.15;;;15.70;99.90;;;;;;4980094;28;20042;-65
2021/09/17 08:12:19;;;;;;;7.75;1.33;;;15.80;99.90;;;;;;4979028;28;20056;-65
2021/09/17 08:14:45;;;;;;;3.35;1.00;;;15.60;99.90;;;;;;4976583;28;20510;-65
2021/09/17 08:17:11;;;;;;;3.83;1.00;;;15.60;99.90;;;;;;4976905;28;20034;-65
2021/09/17 08:19:37;;;;;;;2.50;0.80;;;15.50;99.90;;;;;;4977091;28;20030;-65
2021/09/17 08:22:02;;;;;;;2.10;0.70;;;15.50;99.90;;;;;;4978133;28;20037;-65
2021/09/17 08:24:28;;;;;;;2.88;0.88;;;15.50;99.90;;;;;;4979059;28;20040;-66
2021/09/17 08:26:56;;;;;;;5.88;1.67;;;15.60;99.90;;;;;;4978905;28;20030;-68
2021/09/17 08:29:21;;;;;;;4.40;1.00;;;15.50;99.90;;;;;;4978498;28;20042;-64
2021/09/17 08:31:49;;;;;;;14.52;3.85;;;15.50;99.90;;;;;;4976261;28;20038;-65
2021/09/17 08:34:14;;;;;;;4.57;1.85;;;14.10;99.90;;;;;;4977954;28;20125;-65
2021/09/17 08:36:40;;;;;;;2.42;1.13;;;15.40;99.90;;;;;;4975349;28;20030;-65
2021/09/17 08:39:07;;;;;;;2.03;0.88;;;15.40;99.90;;;;;;4975997;28;20034;-65
2021/09/17 08:41:32;;;;;;;1.42;0.80;;;15.50;99.90;;;;;;4977797;28;20458;-64
2021/09/17 08:43:58;;;;;;;5.82;0.95;;;15.40;99.90;;;;;;4979141;28;20038;-64
2021/09/17 08:46:23;;;;;;;4.97;1.00;;;15.60;99.90;;;;;;4977212;28;20655;-66
2021/09/17 08:48:50;;;;;;;2.70;1.10;;;15.70;99.90;;;;;;4976142;28;20030;-66
2021/09/17 08:51:16;;;;;;;6.05;0.98;;;15.70;99.90;;;;;;4978509;28;20065;-66
2021/09/17 08:53:42;;;;;;;5.68;3.38;;;15.90;99.90;;;;;;4977472;28;20410;-66
2021/09/17 08:56:08;;;;;;;4.25;1.30;;;16.10;99.90;;;;;;4978656;28;20064;-65
2021/09/17 08:58:33;;;;;;;3.65;0.75;;;16.20;99.90;;;;;;4978863;28;20038;-65
2021/09/17 09:00:59;;;;;;;1.75;0.70;;;16.30;99.90;;;;;;4959697;28;20050;-66
2021/09/17 09:03:26;;;;;;;5.07;0.63;;;16.50;99.90;;;;;;4976587;28;20045;-66
2021/09/17 09:05:51;;;;;;;1.25;0.30;;;16.70;99.90;;;;;;4977232;28;20030;-66
2021/09/17 09:08:17;;;;;;;1.25;0.40;;;16.90;99.90;;;;;;4974182;28;20612;-66
2021/09/17 09:10:42;;;;;;;0.10;0.10;;;17.00;99.90;;;;;;4975074;28;20104;-66
2021/09/17 09:13:08;;;;;;;1.50;0.20;;;17.00;99.90;;;;;;4975908;28;20037;-66
2021/09/17 09:15:33;;;;;;;3.42;0.77;;;16.90;99.90;;;;;;4976382;28;20037;-66
2021/09/17 09:17:59;;;;;;;4.32;0.32;;;16.80;99.90;;;;;;4975676;28;20115;-66
2021/09/17 09:20:24;;;;;;;1.25;0.30;;;16.90;99.90;;;;;;4975777;28;20035;-65
2021/09/17 09:22:50;;;;;;;0.95;0.25;;;16.90;99.90;;;;;;4977660;28;20037;-66
2021/09/17 09:25:15;;;;;;;2.83;0.38;;;16.80;99.90;;;;;;4977429;28;20045;-66
2021/09/17 09:27:41;;;;;;;0.38;0.35;;;16.70;99.90;;;;;;4976515;28;20085;-65
2021/09/17 09:30:06;;;;;;;1.75;1.00;;;16.70;99.90;;;;;;4960611;28;20026;-65
2021/09/17 09:32:32;;;;;;;1.10;0.40;;;16.70;99.90;;;;;;4978799;28;20049;-66
2021/09/17 09:34:58;;;;;;;4.03;0.40;;;16.60;99.90;;;;;;4978908;28;20872;-66
2021/09/17 09:37:23;;;;;;;4.10;2.25;;;16.60;99.90;;;;;;4976742;28;20032;-66
2021/09/17 09:39:49;;;;;;;4.32;1.05;;;16.80;99.90;;;;;;4978584;28;21040;-66
2021/09/17 09:42:14;;;;;;;4.07;1.92;;;16.80;99.90;;;;;;4979326;28;20038;-66
2021/09/17 09:44:40;;;;;;;0.50;0.40;;;16.90;99.90;;;;;;4980943;28;20073;-65
2021/09/17 09:47:05;;;;;;;0.73;0.40;;;16.80;99.90;;;;;;4981888;28;20038;-65
2021/09/17 09:49:31;;;;;;;1.60;0.40;;;17.00;99.90;;;;;;4984673;28;20818;-66
2021/09/17 09:51:56;;;;;;;0.80;0.43;;;17.10;99.90;;;;;;4982173;28;20042;-66
2021/09/17 09:54:24;;;;;;;0.98;0.30;;;17.30;99.90;;;;;;4981692;28;20781;-66
2021/09/17 09:56:50;;;;;;;5.45;0.50;;;17.40;99.90;;;;;;4981717;28;20046;-66
2021/09/17 09:59:17;;;;;;;0.98;0.30;;;17.80;99.90;;;;;;4981734;28;20030;-67
2021/09/17 10:01:43;;;;;;;2.08;1.27;;;18.00;99.90;;;;;;4980699;28;20106;-66
2021/09/17 10:04:08;;;;;;;2.15;0.40;;;18.30;99.90;;;;;;4982524;28;20035;-67
2021/09/17 10:06:34;;;;;;;2.40;0.80;;;18.30;99.90;;;;;;4980310;28;20030;-67
2021/09/17 10:09:00;;;;;;;1.70;0.77;;;18.20;99.90;;;;;;4982506;28;20094;-66
2021/09/17 10:11:25;;;;;;;2.47;0.60;;;18.20;99.90;;;;;;4982839;28;20034;-67
2021/09/17 10:13:51;;;;;;;9.70;5.00;;;18.10;99.90;;;;;;4981758;28;22858;-67
2021/09/17 10:16:16;;;;;;;1.55;0.80;;;18.10;99.90;;;;;;4981150;28;20380;-67
2021/09/17 10:18:42;;;;;;;1.50;0.60;;;18.10;99.90;;;;;;4981753;28;20034;-66
2021/09/17 10:21:07;;;;;;;1.10;0.40;;;18.20;99.90;;;;;;4981658;28;20097;-67
2021/09/17 10:23:32;;;;;;;0.50;0.40;;;18.10;99.90;;;;;;4982198;28;20042;-66
2021/09/17 10:25:59;;;;;;;2.00;0.28;;;17.90;99.90;;;;;;4982702;28;20061;-66
2021/09/17 10:28:24;;;;;;;0.45;0.40;;;17.70;99.90;;;;;;4981159;28;20089;-67
2021/09/17 10:30:50;;;;;;;4.38;0.75;;;17.90;99.90;;;;;;4982720;28;20030;-66
2021/09/17 10:33:15;;;;;;;3.83;0.45;;;18.00;99.90;;;;;;4982796;28;20026;-66
2021/09/17 10:35:41;;;;;;;9.35;5.00;;;18.10;99.90;;;;;;4982809;28;20923;-65
2021/09/17 10:38:06;;;;;;;2.15;0.65;;;18.00;99.90;;;;;;4982206;28;20030;-66
2021/09/17 10:40:32;;;;;;;1.63;0.40;;;18.10;99.90;;;;;;4983816;28;20034;-66
2021/09/17 10:42:57;;;;;;;1.35;0.50;;;18.10;99.90;;;;;;4984658;28;20038;-66
2021/09/17 10:45:23;;;;;;;4.10;0.52;;;17.90;99.90;;;;;;4980697;28;20049;-65
2021/09/17 10:47:54;;;;;;;6.97;0.60;;;17.70;99.90;;;;;;4976868;28;20039;-65
2021/09/17 10:50:20;;;;;;;0.30;0.20;;;17.60;99.90;;;;;;4978815;28;20038;-65
2021/09/17 10:52:48;;;;;;;0.70;0.30;;;17.30;99.90;;;;;;4982140;28;20101;-65
2021/09/17 10:55:13;;;;;;;0.77;0.30;;;17.30;99.90;;;;;;4980308;28;20034;-65
2021/09/17 10:57:39;;;;;;;0.50;0.30;;;17.20;99.90;;;;;;4981138;28;20454;-65
2021/09/17 11:00:05;;;;;;;0.32;0.20;;;17.20;99.90;;;;;;4986638;28;20054;-65
2021/09/17 11:02:31;;;;;;;2.00;0.40;;;17.10;99.90;;;;;;4980007;28;20459;-65
2021/09/17 11:04:56;;;;;;;0.80;0.30;;;17.20;99.90;;;;;;4981342;28;20142;-65
2021/09/17 11:07:22;;;;;;;1.13;0.63;;;17.30;99.90;;;;;;4979320;28;20828;-65
2021/09/17 11:09:47;;;;;;;0.30;0.22;;;17.30;99.90;;;;;;4977960;28;20034;-65
2021/09/17 11:12:13;;;;;;;1.33;0.50;;;17.40;99.90;;;;;;4981639;28;20030;-64
2021/09/17 11:14:38;;;;;;;1.45;0.43;;;17.50;99.90;;;;;;4979200;28;20626;-65
2021/09/17 11:17:04;;;;;;;3.88;0.40;;;17.80;99.90;;;;;;4981590;28;20470;-65
2021/09/17 11:19:29;;;;;;;0.38;0.20;;;17.70;99.90;;;;;;4980843;28;20039;-66
2021/09/17 11:21:55;;;;;;;3.50;0.30;;;17.70;99.90;;;;;;4980850;28;20054;-65
2021/09/17 11:24:20;;;;;;;1.77;0.40;;;17.60;99.90;;;;;;4979975;28;20030;-65
2021/09/17 11:26:46;;;;;;;0.73;0.20;;;17.80;99.90;;;;;;4980690;28;20689;-65
2021/09/17 11:29:11;;;;;;;1.17;0.38;;;17.60;99.90;;;;;;4979969;28;20053;-65
2021/09/17 11:31:37;;;;;;;0.30;0.20;;;17.70;99.90;;;;;;4981197;28;20038;-66
2021/09/17 11:34:02;;;;;;;0.28;0.28;;;17.70;99.90;;;;;;4980304;28;20467;-65
2021/09/17 11:36:28;;;;;;;2.60;0.40;;;17.60;99.90;;;;;;4980243;28;20034;-65
2021/09/17 11:38:53;;;;;;;3.72;0.40;;;17.50;99.90;;;;;;4980013;28;20034;-65
2021/09/17 11:41:19;;;;;;;0.98;0.73;;;17.20;99.90;;;;;;4978500;28;20042;-65
2021/09/17 11:43:49;;;;;;;3.67;0.60;;;17.10;99.90;;;;;;4980242;28;20113;-66
2021/09/17 11:46:15;;;;;;;0.75;0.22;;;17.00;99.90;;;;;;4980431;28;20148;-65
2021/09/17 11:48:40;;;;;;;2.88;2.05;;;17.20;99.90;;;;;;4979453;28;20109;-66
2021/09/17 11:51:06;;;;;;;0.30;0.30;;;17.40;99.90;;;;;;4979603;28;20058;-66
2021/09/17 11:53:31;;;;;;;2.65;0.20;;;17.30;99.90;;;;;;4978159;28;20765;-67
2021/09/17 11:55:57;;;;;;;1.80;0.30;;;17.70;99.90;;;;;;4979788;28;20038;-66
2021/09/17 11:58:22;;;;;;;1.13;0.40;;;18.20;99.90;;;;;;4979241;28;20137;-67
2021/09/17 12:00:48;;;;;;;2.60;0.40;;;18.60;99.90;;;;;;4978973;28;20386;-67
2021/09/17 12:03:13;;;;;;;6.97;2.40;;;18.70;99.90;;;;;;4979335;28;20125;-67
2021/09/17 12:05:39;;;;;;;1.88;0.50;;;18.60;99.90;;;;;;4978994;28;20042;-67
2021/09/17 12:08:04;;;;;;;3.90;2.20;;;18.60;99.90;;;;;;4977714;28;20078;-67
2021/09/17 12:10:30;;;;;;;0.93;0.75;;;18.40;99.90;;;;;;4981129;28;20121;-67
2021/09/17 12:12:55;;;;;;;1.77;0.70;;;18.10;99.90;;;;;;4980624;28;20781;-66
2021/09/17 12:15:21;;;;;;;3.25;1.67;;;17.80;99.90;;;;;;4981655;28;20050;-67
2021/09/17 12:17:46;;;;;;;1.98;0.93;;;18.30;99.90;;;;;;4981533;28;20045;-66
2021/09/17 12:20:12;;;;;;;4.07;0.80;;;18.40;99.90;;;;;;4979431;28;20129;-67
2021/09/17 12:22:37;;;;;;;7.10;4.40;;;18.60;99.90;;;;;;4977781;28;20734;-66
2021/09/17 12:25:03;;;;;;;0.52;0.40;;;18.60;99.90;;;;;;4978992;28;20486;-65
2021/09/17 12:27:28;;;;;;;0.47;0.40;;;18.60;99.90;;;;;;4978298;28;20030;-65
2021/09/17 12:29:54;;;;;;;1.38;0.52;;;18.60;99.90;;;;;;4979358;28;20034;-65
2021/09/17 12:32:19;;;;;;;4.78;0.50;;;18.60;99.90;;;;;;4979769;28;20030;-66
2021/09/17 12:34:45;;;;;;;0.50;0.20;;;18.30;99.90;;;;;;4978874;28;20549;-65
2021/09/17 12:37:11;;;;;;;0.93;0.40;;;18.40;99.90;;;;;;4982281;28;20030;-65
2021/09/17 12:39:36;;;;;;;1.23;0.30;;;18.40;99.90;;;;;;4978444;28;20042;-66